Time;durP1;ratioP1;P1;durP2;ratioP2;P2;SDS_P1;SDS_P2;PMS_P1;PMS_P2;Temp;Humidity;BMP_temperature;BMP_pressure;BME280_temperature;BME280_humidity;BME280_pressure;Samples;Min_cycle;Max_cycle;Signal;HPM_P1;HPM_P2
2022/09/03 00:02:07;;;;;;;2.63;1.30;;;21.90;57.20;;;;;;6048864;23;20396;-66
2022/09/03 00:04:59;;;;;;;1.98;1.38;;;21.90;56.90;;;;;;6097363;23;20011;-66
2022/09/03 00:07:40;;;;;;;4.28;1.33;;;21.90;56.60;;;;;;6096945;23;20015;-66
2022/09/03 00:10:15;;;;;;;2.83;1.40;;;21.80;56.50;;;;;;6096904;23;20002;-66
2022/09/03 00:12:44;;;;;;;4.50;1.45;;;21.80;56.50;;;;;;6096989;23;20010;-67
2022/09/03 00:15:18;;;;;;;2.80;1.30;;;21.80;56.70;;;;;;6097009;23;20326;-64
2022/09/03 00:18:06;;;;;;;4.93;1.45;;;21.80;56.70;;;;;;6097116;23;19999;-66
2022/09/03 00:20:41;;;;;;;5.30;1.65;;;21.70;56.90;;;;;;6096893;23;20070;-66
2022/09/03 00:23:13;;;;;;;3.60;1.67;;;21.70;57.10;;;;;;6096850;23;20022;-66
2022/09/03 00:25:45;;;;;;;2.42;1.40;;;21.70;57.10;;;;;;6097157;23;20072;-66
2022/09/03 00:28:19;;;;;;;6.50;1.70;;;21.70;56.80;;;;;;6097100;23;20338;-66
2022/09/03 00:30:55;;;;;;;4.00;1.33;;;21.70;56.70;;;;;;6096655;23;20003;-66
2022/09/03 00:33:25;;;;;;;4.45;2.00;;;21.70;56.80;;;;;;6096642;23;20006;-65
2022/09/03 00:36:17;;;;;;;3.25;1.35;;;21.70;57.00;;;;;;6096961;23;20002;-67
2022/09/03 00:38:43;;;;;;;4.13;1.70;;;21.70;57.10;;;;;;6096978;23;20465;-66
2022/09/03 00:41:37;;;;;;;2.30;1.55;;;21.70;57.20;;;;;;6096734;23;20086;-66
2022/09/03 00:44:25;;;;;;;3.30;1.60;;;21.60;57.80;;;;;;6099009;23;20018;-66
2022/09/03 00:47:01;;;;;;;3.97;1.63;;;21.60;58.00;;;;;;6098752;23;20018;-65
2022/09/03 00:49:45;;;;;;;4.63;1.90;;;21.60;58.40;;;;;;6098803;23;20118;-66
2022/09/03 00:52:21;;;;;;;2.72;1.52;;;21.60;58.70;;;;;;6098477;23;20097;-66
2022/09/03 00:55:04;;;;;;;2.65;1.30;;;21.60;59.00;;;;;;6099140;23;20079;-66
2022/09/03 00:57:49;;;;;;;4.32;1.42;;;21.50;58.90;;;;;;6098551;23;20003;-66
2022/09/03 01:00:19;;;;;;;6.75;1.80;;;21.50;58.80;;;;;;6098572;23;20033;-66
2022/09/03 01:03:06;;;;;;;2.30;1.40;;;21.40;58.70;;;;;;6098585;23;20481;-65
2022/09/03 01:05:48;;;;;;;5.05;1.77;;;21.40;59.10;;;;;;6098772;23;20469;-66
2022/09/03 01:08:23;;;;;;;3.15;1.40;;;21.40;58.90;;;;;;6098315;23;20052;-66
2022/09/03 01:11:18;;;;;;;3.67;1.35;;;21.40;58.70;;;;;;6098270;23;20007;-66
2022/09/03 01:14:01;;;;;;;3.47;1.35;;;21.40;58.70;;;;;;6098791;23;20078;-66
2022/09/03 01:16:44;;;;;;;4.38;1.50;;;21.40;58.70;;;;;;6098942;23;20010;-66
2022/09/03 01:19:30;;;;;;;3.08;1.83;;;21.30;58.60;;;;;;6098454;23;20497;-66
2022/09/03 01:22:19;;;;;;;4.05;1.50;;;21.30;58.80;;;;;;6072794;23;20371;-66
2022/09/03 01:24:58;;;;;;;3.83;1.83;;;21.30;58.90;;;;;;6098282;23;20456;-66
2022/09/03 01:27:42;;;;;;;9.23;2.20;;;21.30;59.00;;;;;;6098631;23;20388;-66
2022/09/03 01:30:17;;;;;;;3.17;1.40;;;21.30;58.80;;;;;;6098648;23;20017;-66
2022/09/03 01:33:06;;;;;;;8.48;1.70;;;21.30;58.80;;;;;;6098394;23;20010;-66
2022/09/03 01:35:50;;;;;;;3.20;1.58;;;21.30;58.90;;;;;;6098552;23;20005;-66
2022/09/03 01:38:38;;;;;;;3.15;1.40;;;21.30;59.00;;;;;;6098268;23;20311;-66
2022/09/03 01:44:31;;;;;;;2.13;1.50;;;21.20;58.40;;;;;;6098662;23;20097;-66
2022/09/03 01:47:30;;;;;;;6.80;1.67;;;21.30;58.20;;;;;;6098197;23;20560;-66
2022/09/03 01:50:05;;;;;;;5.28;1.70;;;21.20;58.20;;;;;;6091323;23;20011;-66
2022/09/03 01:52:42;;;;;;;6.13;1.50;;;21.30;58.10;;;;;;6098215;23;20014;-66
2022/09/03 01:55:31;;;;;;;4.35;1.50;;;21.30;57.80;;;;;;6098058;23;20098;-66
2022/09/03 01:58:12;;;;;;;4.45;1.50;;;21.20;57.70;;;;;;6098625;23;20021;-66
2022/09/03 02:00:41;;;;;;;4.32;1.45;;;21.30;57.90;;;;;;6097745;23;20319;-66
2022/09/03 02:03:10;;;;;;;5.13;1.42;;;21.20;57.90;;;;;;6097871;23;20012;-66
2022/09/03 02:05:36;;;;;;;2.45;1.60;;;21.20;58.10;;;;;;6097485;23;19998;-66
2022/09/03 02:08:07;;;;;;;4.45;2.38;;;21.20;58.20;;;;;;6098571;23;20048;-66
2022/09/03 02:10:49;;;;;;;3.20;1.52;;;21.20;58.30;;;;;;6097846;23;19999;-66
2022/09/03 02:13:19;;;;;;;1.80;1.30;;;21.20;58.40;;;;;;6097706;23;20053;-66
2022/09/03 02:15:47;;;;;;;2.88;1.30;;;21.10;58.30;;;;;;6097817;23;20007;-66
2022/09/03 02:18:37;;;;;;;3.83;1.75;;;21.10;58.30;;;;;;6098284;23;20010;-65
2022/09/03 02:21:04;;;;;;;4.07;1.48;;;21.10;58.50;;;;;;6098221;23;20033;-66
2022/09/03 02:23:29;;;;;;;3.67;1.92;;;21.10;58.50;;;;;;6072135;23;20337;-66
2022/09/03 02:26:01;;;;;;;8.82;2.10;;;21.10;58.60;;;;;;6097823;23;20069;-66
2022/09/03 02:28:29;;;;;;;2.97;1.33;;;21.00;58.60;;;;;;6097802;23;20045;-66
2022/09/03 02:30:55;;;;;;;3.55;1.75;;;21.10;59.00;;;;;;6097545;23;20080;-66
2022/09/03 02:33:21;;;;;;;2.42;1.52;;;21.00;59.00;;;;;;6097457;23;20073;-66
2022/09/03 02:35:47;;;;;;;4.05;1.38;;;21.00;59.20;;;;;;6097865;23;20311;-66
2022/09/03 02:38:25;;;;;;;3.45;1.42;;;21.00;59.20;;;;;;6097982;23;20019;-66
2022/09/03 02:40:53;;;;;;;4.47;1.70;;;21.00;59.40;;;;;;6097538;23;20005;-66
2022/09/03 02:43:39;;;;;;;9.77;1.85;;;20.90;59.40;;;;;;6097640;23;20322;-66
2022/09/03 02:46:11;;;;;;;6.53;1.50;;;20.90;59.40;;;;;;6053494;23;20504;-66
2022/09/03 02:48:37;;;;;;;3.63;1.55;;;20.90;59.60;;;;;;6097474;23;20078;-65
2022/09/03 02:51:03;;;;;;;5.75;1.83;;;20.80;59.70;;;;;;6097700;23;20034;-66
2022/09/03 02:53:28;;;;;;;3.47;1.58;;;20.80;59.70;;;;;;6097445;23;20464;-66
2022/09/03 02:55:59;;;;;;;5.78;1.67;;;20.80;59.70;;;;;;6097965;23;20006;-66
2022/09/03 02:58:25;;;;;;;5.78;1.75;;;20.80;59.70;;;;;;6097553;23;20006;-66
2022/09/03 03:00:51;;;;;;;4.32;1.45;;;20.80;59.90;;;;;;6097117;23;20346;-66
2022/09/03 03:03:17;;;;;;;2.83;1.52;;;20.70;60.10;;;;;;6097290;23;20014;-66
2022/09/03 03:05:50;;;;;;;4.85;1.80;;;20.70;60.50;;;;;;6097296;23;20009;-67
2022/09/03 03:08:19;;;;;;;5.07;1.70;;;20.70;60.60;;;;;;6097541;23;20079;-66
2022/09/03 03:10:47;;;;;;;3.00;1.90;;;20.70;60.50;;;;;;6097432;23;20311;-66
2022/09/03 03:13:13;;;;;;;3.67;1.50;;;20.70;60.30;;;;;;6097174;23;20134;-66
2022/09/03 03:15:39;;;;;;;2.63;1.60;;;20.70;60.40;;;;;;6097223;23;20030;-66
2022/09/03 03:18:06;;;;;;;4.88;1.80;;;20.70;60.60;;;;;;6097378;23;20411;-67
2022/09/03 03:20:32;;;;;;;3.85;1.60;;;20.70;60.60;;;;;;6097402;23;20002;-66
2022/09/03 03:23:01;;;;;;;6.07;1.30;;;20.70;60.50;;;;;;6097369;23;20058;-66
2022/09/03 03:25:26;;;;;;;3.03;1.65;;;20.70;60.40;;;;;;6096963;23;20010;-66
2022/09/03 03:27:55;;;;;;;5.43;1.65;;;20.60;60.20;;;;;;6097041;23;20342;-66
2022/09/03 03:30:22;;;;;;;3.90;1.73;;;20.60;60.30;;;;;;6097123;23;20007;-66
2022/09/03 03:32:48;;;;;;;4.93;1.40;;;20.60;60.30;;;;;;6097206;23;20018;-66
2022/09/03 03:35:13;;;;;;;5.45;1.80;;;20.60;60.30;;;;;;6097206;23;20002;-66
2022/09/03 03:37:39;;;;;;;6.60;1.55;;;20.50;60.40;;;;;;6096928;23;20010;-66
2022/09/03 03:40:06;;;;;;;4.18;1.63;;;20.60;60.60;;;;;;6096903;23;20489;-66
2022/09/03 03:42:35;;;;;;;3.25;1.50;;;20.50;60.60;;;;;;6097524;23;20010;-65
2022/09/03 03:45:01;;;;;;;7.72;1.55;;;20.50;60.40;;;;;;6097168;23;20413;-66
2022/09/03 03:47:29;;;;;;;6.30;1.77;;;20.50;60.70;;;;;;6097292;23;20456;-66
2022/09/03 03:49:56;;;;;;;2.35;1.50;;;20.50;60.60;;;;;;6097097;23;20477;-66
2022/09/03 03:52:23;;;;;;;6.35;1.50;;;20.50;60.80;;;;;;6096839;23;20013;-67
2022/09/03 03:54:49;;;;;;;2.42;1.60;;;20.50;60.70;;;;;;6097051;23;20438;-66
2022/09/03 03:57:15;;;;;;;2.38;1.50;;;20.40;60.60;;;;;;6096648;23;20030;-66
2022/09/03 03:59:41;;;;;;;4.18;1.67;;;20.40;60.70;;;;;;6096776;23;20015;-66
2022/09/03 04:02:07;;;;;;;3.13;1.70;;;20.40;60.80;;;;;;6097247;23;20041;-66
2022/09/03 04:04:32;;;;;;;5.75;1.60;;;20.30;60.90;;;;;;6097087;23;20330;-66
2022/09/03 04:06:58;;;;;;;2.08;1.50;;;20.30;61.20;;;;;;6096886;23;20342;-66
2022/09/03 04:09:24;;;;;;;3.53;1.70;;;20.30;61.50;;;;;;6097058;23;20002;-66
2022/09/03 04:11:49;;;;;;;3.45;1.65;;;20.20;61.70;;;;;;6096836;23;20072;-66
2022/09/03 04:14:16;;;;;;;4.45;1.80;;;20.10;61.80;;;;;;6096962;23;20002;-66
2022/09/03 04:16:45;;;;;;;6.32;1.60;;;20.00;61.90;;;;;;6097925;23;20386;-66
2022/09/03 04:19:11;;;;;;;5.45;2.10;;;20.00;62.20;;;;;;6100425;23;20038;-66
2022/09/03 04:21:38;;;;;;;3.65;1.60;;;20.00;62.30;;;;;;6100184;23;20010;-66
2022/09/03 04:24:04;;;;;;;7.15;1.92;;;20.00;62.80;;;;;;6100388;23;20002;-66
2022/09/03 04:26:31;;;;;;;8.35;2.65;;;19.90;62.80;;;;;;6100291;23;20019;-66
2022/09/03 04:28:59;;;;;;;5.38;1.83;;;19.90;62.80;;;;;;6100049;23;20109;-66
2022/09/03 04:31:26;;;;;;;5.57;1.85;;;19.90;63.00;;;;;;6100184;23;20054;-66
2022/09/03 04:33:51;;;;;;;6.85;1.70;;;19.80;62.90;;;;;;6100055;23;20010;-66
2022/09/03 04:36:20;;;;;;;4.00;1.95;;;19.80;63.00;;;;;;6100067;23;20061;-66
2022/09/03 04:38:47;;;;;;;4.78;2.10;;;19.80;63.20;;;;;;6100645;23;20141;-66
2022/09/03 04:41:16;;;;;;;6.00;2.10;;;19.80;63.20;;;;;;6100029;23;20006;-66
2022/09/03 04:43:42;;;;;;;2.55;1.70;;;19.70;63.20;;;;;;6100520;23;20075;-66
2022/09/03 04:46:10;;;;;;;4.95;1.83;;;19.70;63.20;;;;;;6100267;23;20058;-66
2022/09/03 04:48:36;;;;;;;2.45;1.30;;;19.70;63.40;;;;;;6099926;23;20059;-66
2022/09/03 04:51:12;;;;;;;4.22;1.63;;;19.70;63.20;;;;;;6100264;23;20377;-66
2022/09/03 04:53:41;;;;;;;4.50;1.80;;;19.70;63.20;;;;;;6100288;23;20081;-66
2022/09/03 04:56:15;;;;;;;3.03;1.55;;;19.70;63.20;;;;;;6099870;23;20006;-66
2022/09/03 04:58:43;;;;;;;5.40;1.80;;;19.70;63.30;;;;;;6100053;23;20051;-66
2022/09/03 05:01:19;;;;;;;3.15;1.60;;;19.80;63.40;;;;;;6100291;23;20057;-66
2022/09/03 05:03:46;;;;;;;3.85;1.58;;;19.80;63.40;;;;;;6100075;23;20053;-66
2022/09/03 05:06:12;;;;;;;6.15;1.60;;;19.80;63.50;;;;;;6100064;23;20002;-66
2022/09/03 05:08:39;;;;;;;4.55;1.92;;;19.80;63.50;;;;;;6099803;23;20014;-66
2022/09/03 05:11:06;;;;;;;4.60;1.70;;;19.80;63.30;;;;;;6099895;23;20512;-66
2022/09/03 05:13:33;;;;;;;4.50;1.60;;;19.80;63.10;;;;;;6099955;23;20067;-66
2022/09/03 05:16:00;;;;;;;5.10;1.40;;;19.80;63.20;;;;;;6100161;23;20445;-66
2022/09/03 05:18:26;;;;;;;5.88;1.83;;;19.80;63.50;;;;;;6099950;23;20493;-65
2022/09/03 05:21:04;;;;;;;3.80;1.60;;;19.80;63.40;;;;;;6100283;23;20049;-66
2022/09/03 05:23:30;;;;;;;3.63;1.73;;;19.80;63.50;;;;;;6099957;23;20054;-66
2022/09/03 05:25:59;;;;;;;6.00;1.52;;;19.80;63.50;;;;;;6100003;23;20053;-65
2022/09/03 05:28:26;;;;;;;3.65;1.75;;;19.70;63.70;;;;;;6099390;23;20058;-66
2022/09/03 05:31:06;;;;;;;1.98;1.45;;;19.70;63.70;;;;;;6098042;23;20002;-66
2022/09/03 05:33:41;;;;;;;4.93;1.63;;;19.70;64.10;;;;;;6098196;23;20007;-66
2022/09/03 05:36:09;;;;;;;6.03;1.75;;;19.70;64.10;;;;;;6098591;23;20295;-66
2022/09/03 05:38:35;;;;;;;2.75;1.48;;;19.70;64.20;;;;;;6098389;23;20066;-66
2022/09/03 05:41:04;;;;;;;3.88;1.80;;;19.60;64.20;;;;;;6098023;23;20390;-66
2022/09/03 05:43:31;;;;;;;11.15;1.67;;;19.60;64.50;;;;;;6098289;23;20006;-66
2022/09/03 05:45:59;;;;;;;8.50;1.70;;;19.60;64.50;;;;;;6098208;23;20374;-66
2022/09/03 05:48:26;;;;;;;7.25;1.80;;;19.60;64.50;;;;;;6098048;23;20018;-66
2022/09/03 05:51:18;;;;;;;4.53;1.52;;;19.60;64.60;;;;;;6097805;23;20013;-66
2022/09/03 05:53:46;;;;;;;7.00;1.95;;;19.60;65.00;;;;;;6094036;23;20014;-66
2022/09/03 05:56:17;;;;;;;4.05;1.60;;;19.60;65.00;;;;;;6098396;23;20011;-66
2022/09/03 05:58:46;;;;;;;3.77;1.57;;;19.60;65.00;;;;;;6097900;23;20026;-66
2022/09/03 06:01:22;;;;;;;4.75;1.80;;;19.70;65.30;;;;;;6097962;23;20254;-65
2022/09/03 06:03:54;;;;;;;4.78;1.73;;;19.70;65.50;;;;;;6097910;23;20093;-66
2022/09/03 06:06:24;;;;;;;4.00;1.30;;;19.70;65.60;;;;;;6097916;23;20418;-67
2022/09/03 06:08:51;;;;;;;5.45;1.70;;;19.80;65.70;;;;;;6097912;23;20037;-66
2022/09/03 06:11:16;;;;;;;5.18;1.67;;;19.80;65.40;;;;;;6097794;23;20473;-66
2022/09/03 06:13:42;;;;;;;4.78;1.80;;;19.80;65.50;;;;;;6097993;23;20067;-66
2022/09/03 06:16:08;;;;;;;7.72;2.03;;;19.90;65.80;;;;;;6098167;23;20037;-66
2022/09/03 06:18:34;;;;;;;5.20;1.70;;;19.90;65.90;;;;;;6097840;23;20060;-65
2022/09/03 06:21:05;;;;;;;5.50;1.77;;;20.00;66.00;;;;;;6097641;23;20006;-66
2022/09/03 06:23:32;;;;;;;3.83;1.60;;;20.00;65.90;;;;;;6097461;23;20435;-66
2022/09/03 06:26:01;;;;;;;6.90;2.00;;;20.10;65.90;;;;;;6097775;23;20012;-66
2022/09/03 06:28:26;;;;;;;4.47;1.67;;;20.20;65.80;;;;;;6097760;23;20014;-66
2022/09/03 06:30:53;;;;;;;2.78;1.52;;;20.20;65.50;;;;;;6097629;23;20518;-66
2022/09/03 06:33:18;;;;;;;3.65;1.60;;;20.30;65.70;;;;;;6097727;23;20006;-66
2022/09/03 06:35:45;;;;;;;8.02;1.65;;;20.30;64.30;;;;;;6097327;23;19999;-66
2022/09/03 06:38:11;;;;;;;3.28;1.50;;;20.40;64.00;;;;;;6097504;23;20015;-66
2022/09/03 06:40:37;;;;;;;5.32;1.38;;;20.40;63.60;;;;;;6097477;23;20330;-66
2022/09/03 06:43:03;;;;;;;1.70;1.27;;;20.50;63.20;;;;;;6097985;23;20013;-66
2022/09/03 06:45:30;;;;;;;2.35;1.30;;;20.60;63.20;;;;;;6097413;23;20010;-65
2022/09/03 06:47:55;;;;;;;2.10;1.50;;;20.70;62.90;;;;;;6097365;23;20393;-66
2022/09/03 06:50:22;;;;;;;5.65;2.22;;;20.70;62.30;;;;;;6097656;23;20026;-66
2022/09/03 06:52:53;;;;;;;6.05;1.40;;;20.80;62.10;;;;;;6097867;23;20022;-66
2022/09/03 06:55:21;;;;;;;2.65;1.38;;;20.90;61.90;;;;;;6097751;23;20394;-66
2022/09/03 06:57:47;;;;;;;3.13;1.40;;;20.90;61.60;;;;;;6097679;23;20021;-66
2022/09/03 07:00:14;;;;;;;3.10;1.40;;;21.00;61.20;;;;;;6097124;23;20051;-66
2022/09/03 07:02:40;;;;;;;2.38;1.55;;;21.00;60.60;;;;;;6097516;23;20009;-66
2022/09/03 07:05:07;;;;;;;3.00;1.60;;;21.20;60.60;;;;;;6097721;23;20374;-66
2022/09/03 07:07:32;;;;;;;3.22;1.35;;;21.20;60.60;;;;;;6097014;23;20030;-66
2022/09/03 07:09:58;;;;;;;2.25;1.30;;;21.30;60.50;;;;;;6097262;23;20006;-66
2022/09/03 07:12:24;;;;;;;2.40;1.50;;;21.40;60.40;;;;;;6097251;23;20378;-66
2022/09/03 07:14:50;;;;;;;2.80;1.40;;;21.40;60.10;;;;;;6097409;23;20003;-66
2022/09/03 07:17:15;;;;;;;5.75;1.55;;;21.40;60.00;;;;;;6097119;23;20003;-66
2022/09/03 07:19:41;;;;;;;2.30;1.40;;;21.50;59.80;;;;;;6097096;23;20422;-66
2022/09/03 07:22:09;;;;;;;2.25;1.67;;;21.60;59.70;;;;;;6097436;23;20006;-67
2022/09/03 07:24:36;;;;;;;1.70;1.35;;;21.60;59.50;;;;;;6097060;23;20441;-66
2022/09/03 07:27:04;;;;;;;3.63;1.30;;;21.70;59.30;;;;;;6096939;23;20018;-66
2022/09/03 07:29:30;;;;;;;4.15;1.40;;;21.80;58.80;;;;;;6071645;23;20330;-65
2022/09/03 07:31:55;;;;;;;3.60;1.60;;;21.80;58.80;;;;;;6097308;23;20003;-66
2022/09/03 07:34:25;;;;;;;6.93;1.23;;;21.90;58.80;;;;;;6096936;23;20003;-66
2022/09/03 07:36:51;;;;;;;3.80;1.63;;;21.90;58.50;;;;;;6097758;23;20013;-66
2022/09/03 07:39:17;;;;;;;3.13;1.50;;;22.00;58.20;;;;;;6097507;23;20003;-66
2022/09/03 07:41:44;;;;;;;4.28;1.40;;;22.10;57.80;;;;;;6097143;23;20010;-66
2022/09/03 07:44:12;;;;;;;3.95;1.33;;;22.10;57.40;;;;;;6097009;23;20484;-66
2022/09/03 07:46:39;;;;;;;6.10;1.40;;;22.20;57.30;;;;;;6096722;23;20021;-66
2022/09/03 07:49:05;;;;;;;1.73;1.30;;;22.30;57.50;;;;;;6096810;23;20007;-66
2022/09/03 07:51:34;;;;;;;2.90;1.45;;;22.30;57.40;;;;;;6096687;23;20077;-66
2022/09/03 07:54:03;;;;;;;3.58;1.63;;;22.40;57.40;;;;;;6097218;23;20337;-65
2022/09/03 07:56:32;;;;;;;2.30;1.40;;;22.50;57.30;;;;;;6097115;23;20315;-66
2022/09/03 07:58:58;;;;;;;2.35;1.40;;;22.60;57.20;;;;;;6096717;23;20018;-66
2022/09/03 08:01:26;;;;;;;4.35;1.25;;;22.60;56.30;;;;;;6097311;23;20070;-66
2022/09/03 08:03:53;;;;;;;2.78;1.38;;;22.70;55.70;;;;;;6096958;23;19999;-66
2022/09/03 08:06:22;;;;;;;2.35;1.27;;;22.70;55.40;;;;;;6097726;23;20089;-66
2022/09/03 08:08:48;;;;;;;5.03;1.65;;;22.80;55.20;;;;;;6097111;23;20434;-66
2022/09/03 08:11:20;;;;;;;2.17;1.38;;;22.90;55.10;;;;;;6096720;23;20075;-66
2022/09/03 08:13:47;;;;;;;;;;;22.90;55.10;;;;;;6097528;23;20002;-66
2022/09/03 08:16:17;;;;;;;2.53;1.40;;;23.00;54.70;;;;;;6096987;23;19925;-66
2022/09/03 08:18:43;;;;;;;5.20;1.40;;;23.10;54.50;;;;;;6097298;23;20007;-66
2022/09/03 08:21:14;;;;;;;5.70;1.80;;;23.10;54.70;;;;;;6097166;23;20018;-66
2022/09/03 08:23:41;;;;;;;2.53;1.25;;;23.20;54.90;;;;;;6097260;23;20050;-66
2022/09/03 08:26:07;;;;;;;3.80;1.33;;;23.20;54.90;;;;;;6096775;23;20006;-66
2022/09/03 08:28:35;;;;;;;2.10;1.27;;;23.30;54.60;;;;;;6097056;23;20442;-66
2022/09/03 08:31:31;;;;;;;1.92;1.40;;;23.40;54.10;;;;;;6096691;23;20006;-66
2022/09/03 08:33:58;;;;;;;4.97;1.33;;;23.50;53.90;;;;;;6092584;23;20017;-66
2022/09/03 08:36:29;;;;;;;3.97;1.58;;;23.60;53.80;;;;;;6097237;23;20081;-66
2022/09/03 08:38:56;;;;;;;1.58;1.10;;;23.70;54.00;;;;;;6096634;23;20061;-67
2022/09/03 08:42:07;;;;;;;1.85;1.40;;;23.80;53.70;;;;;;6097214;23;20049;-66
2022/09/03 08:44:55;;;;;;;3.15;1.30;;;23.80;53.20;;;;;;6096679;23;20046;-66
2022/09/03 08:47:21;;;;;;;1.70;1.20;;;24.00;53.00;;;;;;6096957;23;20018;-66
2022/09/03 08:49:56;;;;;;;1.60;1.30;;;24.00;52.50;;;;;;6096681;23;20015;-66
2022/09/03 08:52:31;;;;;;;6.38;1.50;;;24.10;52.30;;;;;;6096868;23;20003;-66
2022/09/03 08:55:25;;;;;;;11.80;2.00;;;24.10;51.90;;;;;;6097046;23;20022;-66
2022/09/03 08:58:04;;;;;;;8.80;1.70;;;24.20;52.10;;;;;;6086587;23;20007;-66
2022/09/03 09:00:49;;;;;;;5.40;1.30;;;24.30;52.00;;;;;;6096779;23;20070;-66
2022/09/03 09:03:27;;;;;;;2.85;1.38;;;24.30;52.00;;;;;;6097311;23;20014;-66
2022/09/03 09:06:15;;;;;;;4.10;1.60;;;24.40;51.50;;;;;;6098810;23;20022;-66
2022/09/03 09:09:04;;;;;;;4.25;1.38;;;24.50;51.20;;;;;;6098760;23;20086;-66
2022/09/03 09:11:49;;;;;;;3.72;1.15;;;24.60;52.40;;;;;;6098696;23;20319;-66
2022/09/03 09:14:46;;;;;;;5.82;1.27;;;24.70;51.40;;;;;;6098460;23;20370;-66
2022/09/03 09:17:31;;;;;;;4.32;1.45;;;24.70;50.20;;;;;;6099037;23;20010;-66
2022/09/03 09:20:32;;;;;;;1.85;1.02;;;24.70;49.50;;;;;;6098688;23;20009;-67
2022/09/03 09:23:06;;;;;;;4.35;1.00;;;24.80;48.40;;;;;;6098410;23;20089;-66
2022/09/03 09:25:40;;;;;;;2.85;1.33;;;24.90;48.20;;;;;;6098615;23;19998;-66
2022/09/03 09:28:21;;;;;;;1.60;1.20;;;25.00;48.10;;;;;;6098522;23;20025;-66
2022/09/03 09:30:50;;;;;;;3.92;1.02;;;25.10;47.30;;;;;;6098207;23;20007;-66
2022/09/03 09:33:17;;;;;;;3.72;1.15;;;25.10;47.60;;;;;;6098675;23;20011;-66
2022/09/03 09:35:43;;;;;;;2.78;1.27;;;25.20;47.00;;;;;;6098218;23;20006;-66
2022/09/03 09:38:10;;;;;;;2.85;1.30;;;25.30;47.00;;;;;;6098243;23;20448;-66
2022/09/03 09:40:44;;;;;;;2.45;1.23;;;25.40;47.00;;;;;;6098166;23;20073;-66
2022/09/03 09:43:14;;;;;;;4.20;1.30;;;25.40;47.50;;;;;;6098685;23;20398;-66
2022/09/03 09:45:43;;;;;;;5.28;1.20;;;25.50;47.10;;;;;;6098114;23;20003;-66
2022/09/03 09:48:22;;;;;;;2.00;1.40;;;25.60;47.10;;;;;;6098536;23;20014;-66
2022/09/03 09:50:48;;;;;;;2.95;1.00;;;25.60;46.60;;;;;;6098425;23;20330;-66
2022/09/03 09:53:17;;;;;;;1.60;1.00;;;25.70;46.90;;;;;;6098394;23;20072;-66
2022/09/03 09:56:01;;;;;;;1.63;1.08;;;25.80;46.90;;;;;;6098185;23;19998;-66
2022/09/03 09:58:29;;;;;;;3.28;1.23;;;25.80;47.00;;;;;;6098187;23;20334;-66
2022/09/03 10:01:13;;;;;;;2.10;1.17;;;25.90;46.90;;;;;;6098153;23;20032;-66
2022/09/03 10:03:54;;;;;;;2.50;1.20;;;25.90;46.90;;;;;;6097962;23;20013;-66
2022/09/03 10:09:17;;;;;;;2.25;1.40;;;26.10;46.80;;;;;;6098141;23;20021;-66
2022/09/03 10:11:50;;;;;;;4.25;1.05;;;26.20;45.90;;;;;;6097914;23;20374;-66
2022/09/03 10:14:31;;;;;;;4.28;1.30;;;26.30;45.00;;;;;;6097730;23;20430;-66
2022/09/03 10:17:09;;;;;;;1.25;1.08;;;26.30;44.70;;;;;;6098027;23;20002;-66
2022/09/03 10:20:26;;;;;;;2.35;1.10;;;26.40;45.60;;;;;;6098056;23;20011;-66
2022/09/03 10:23:03;;;;;;;3.92;1.08;;;26.40;45.00;;;;;;6097833;23;20010;-66
2022/09/03 10:26:11;;;;;;;3.70;1.25;;;26.50;45.80;;;;;;6098103;23;20098;-66
2022/09/03 10:28:41;;;;;;;3.38;1.20;;;26.50;45.40;;;;;;6085705;23;20018;-66
2022/09/03 10:31:35;;;;;;;4.68;1.15;;;26.70;44.50;;;;;;6097818;23;20089;-66
2022/09/03 10:34:19;;;;;;;1.95;1.25;;;26.70;44.30;;;;;;6097867;23;20326;-67
2022/09/03 10:37:10;;;;;;;2.97;1.13;;;26.80;44.20;;;;;;6097691;23;20433;-64
2022/09/03 10:39:59;;;;;;;3.97;1.67;;;26.80;44.70;;;;;;6097782;23;20003;-66
2022/09/03 10:42:44;;;;;;;2.00;1.10;;;26.90;44.40;;;;;;6097745;23;20010;-66
2022/09/03 10:45:36;;;;;;;2.03;1.00;;;27.00;43.90;;;;;;6097764;23;20010;-67
2022/09/03 10:48:10;;;;;;;;;;;27.10;44.80;;;;;;6097472;23;20014;-66
2022/09/03 10:50:51;;;;;;;5.70;1.10;;;27.20;44.50;;;;;;6097985;23;20225;-66
2022/09/03 10:53:59;;;;;;;1.88;1.02;;;27.20;43.60;;;;;;6097827;23;20077;-66
2022/09/03 10:56:39;;;;;;;6.28;1.20;;;27.20;43.60;;;;;;6085660;23;20395;-66
2022/09/03 10:59:26;;;;;;;3.58;1.15;;;27.10;43.80;;;;;;6097330;23;20024;-66
2022/09/03 11:02:16;;;;;;;5.28;1.40;;;27.10;44.40;;;;;;6097261;23;20007;-66
2022/09/03 11:04:57;;;;;;;2.95;1.00;;;27.20;44.50;;;;;;6097425;23;20010;-66
2022/09/03 11:07:34;;;;;;;2.90;1.13;;;27.30;44.10;;;;;;6097294;23;20438;-66
2022/09/03 11:10:25;;;;;;;2.72;1.20;;;27.30;43.90;;;;;;6097237;23;20075;-66
2022/09/03 11:13:29;;;;;;;2.55;1.15;;;27.40;44.30;;;;;;6097690;23;20121;-66
2022/09/03 11:16:01;;;;;;;5.43;1.55;;;27.50;44.80;;;;;;6063973;23;20010;-66
2022/09/03 11:18:39;;;;;;;9.30;1.30;;;27.60;45.00;;;;;;6097524;23;20017;-67
2022/09/03 11:21:10;;;;;;;1.75;1.00;;;27.70;44.80;;;;;;6097324;23;20049;-66
2022/09/03 11:23:40;;;;;;;3.63;1.00;;;27.80;43.60;;;;;;6097173;23;20003;-66
2022/09/03 11:26:11;;;;;;;4.78;1.50;;;27.80;42.70;;;;;;6097078;23;20002;-66
2022/09/03 11:28:52;;;;;;;2.22;1.00;;;27.80;43.30;;;;;;6097128;23;20108;-66
2022/09/03 11:31:22;;;;;;;5.32;1.48;;;27.90;43.70;;;;;;6097270;23;19999;-66
2022/09/03 11:33:57;;;;;;;1.60;0.88;;;27.90;42.40;;;;;;6097083;23;20007;-66
2022/09/03 11:36:30;;;;;;;1.35;1.00;;;27.90;42.40;;;;;;6097417;23;19999;-66
2022/09/03 11:38:56;;;;;;;5.85;1.40;;;27.90;43.30;;;;;;6096923;23;20002;-66
2022/09/03 11:41:30;;;;;;;3.75;1.20;;;27.90;43.60;;;;;;6097443;23;20017;-66
2022/09/03 11:43:56;;;;;;;4.97;1.40;;;27.90;43.20;;;;;;6097383;23;20015;-66
2022/09/03 11:46:22;;;;;;;1.77;1.00;;;27.90;43.60;;;;;;6096838;23;20478;-66
2022/09/03 11:48:50;;;;;;;3.42;1.02;;;27.90;43.50;;;;;;6097058;23;20521;-66
2022/09/03 11:51:36;;;;;;;1.73;1.10;;;27.90;43.00;;;;;;6097205;23;19999;-67
2022/09/03 11:54:05;;;;;;;3.03;1.10;;;28.00;43.00;;;;;;6097034;23;20378;-66
2022/09/03 11:56:32;;;;;;;2.38;1.10;;;28.00;43.10;;;;;;6097305;23;20009;-67
2022/09/03 11:59:02;;;;;;;2.08;0.98;;;28.00;41.90;;;;;;6096728;23;20029;-67
2022/09/03 12:01:29;;;;;;;2.03;1.13;;;28.00;42.20;;;;;;6097235;23;20006;-66
2022/09/03 12:04:04;;;;;;;2.03;1.05;;;28.00;42.80;;;;;;6097334;23;20090;-66
2022/09/03 12:07:03;;;;;;;3.05;1.40;;;28.00;43.30;;;;;;6096632;23;20014;-67
2022/09/03 12:10:02;;;;;;;4.18;1.20;;;28.10;43.20;;;;;;6048640;23;20074;-66
2022/09/03 12:12:57;;;;;;;3.53;1.27;;;28.10;42.90;;;;;;6097022;23;20017;-67
2022/09/03 12:15:41;;;;;;;3.30;1.10;;;28.20;42.30;;;;;;6096987;23;20425;-66
2022/09/03 12:18:20;;;;;;;7.82;1.13;;;28.30;43.10;;;;;;6097114;23;20014;-67
2022/09/03 12:20:59;;;;;;;3.08;1.30;;;28.40;42.80;;;;;;6096566;23;20041;-66
2022/09/03 12:23:29;;;;;;;1.42;1.08;;;28.50;42.70;;;;;;6097010;23;20460;-67
2022/09/03 12:25:57;;;;;;;4.88;1.10;;;28.60;42.40;;;;;;6096960;23;20074;-67
2022/09/03 12:28:25;;;;;;;2.42;1.23;;;28.80;42.20;;;;;;6096677;23;20014;-67
2022/09/03 12:30:52;;;;;;;5.50;1.30;;;28.90;41.70;;;;;;6096985;23;19999;-66
2022/09/03 12:33:21;;;;;;;4.95;1.08;;;29.00;42.10;;;;;;6097180;23;20041;-67
2022/09/03 12:35:59;;;;;;;4.22;1.05;;;29.10;41.20;;;;;;6096914;23;20030;-67
2022/09/03 12:38:28;;;;;;;3.25;0.93;;;29.20;41.20;;;;;;6097627;23;19999;-67
2022/09/03 12:40:54;;;;;;;3.13;1.25;;;29.30;40.40;;;;;;6098780;23;20010;-67
2022/09/03 12:43:25;;;;;;;7.35;1.75;;;29.20;40.20;;;;;;6099386;23;20378;-66
2022/09/03 12:45:51;;;;;;;3.47;1.38;;;29.20;40.00;;;;;;6098819;23;20090;-66
2022/09/03 12:48:19;;;;;;;4.97;1.67;;;29.10;40.00;;;;;;6098966;23;20450;-66
2022/09/03 12:50:46;;;;;;;5.13;1.77;;;29.10;40.50;;;;;;6098819;23;20003;-66
2022/09/03 12:53:15;;;;;;;2.50;1.40;;;29.00;40.20;;;;;;6098481;23;20018;-67
2022/09/03 12:56:00;;;;;;;2.38;1.00;;;29.00;40.80;;;;;;6098372;23;20004;-67
2022/09/03 12:58:46;;;;;;;11.80;2.53;;;28.90;40.80;;;;;;6098654;23;20043;-66
2022/09/03 13:01:22;;;;;;;2.47;1.17;;;29.00;40.80;;;;;;6099058;23;20027;-67
2022/09/03 13:04:09;;;;;;;3.88;1.20;;;29.00;41.00;;;;;;6098717;23;20014;-67
2022/09/03 13:06:55;;;;;;;1.40;1.10;;;29.10;41.00;;;;;;6098150;23;20354;-67
2022/09/03 13:09:28;;;;;;;2.42;1.02;;;29.10;41.40;;;;;;6098531;23;20007;-67
2022/09/03 13:11:57;;;;;;;2.42;1.05;;;29.10;41.00;;;;;;6098654;23;20010;-66
2022/09/03 13:14:25;;;;;;;2.95;1.10;;;29.20;41.40;;;;;;6098610;23;20014;-66
2022/09/03 13:17:09;;;;;;;5.20;1.40;;;29.20;40.50;;;;;;6098606;23;20410;-66
2022/09/03 13:19:44;;;;;;;2.10;1.05;;;29.30;41.50;;;;;;6098624;23;19999;-67
2022/09/03 13:22:21;;;;;;;8.13;0.98;;;29.40;41.50;;;;;;6098798;23;20010;-66
2022/09/03 13:25:14;;;;;;;2.22;1.15;;;29.50;40.80;;;;;;6098592;23;20014;-67
2022/09/03 13:27:58;;;;;;;2.42;1.02;;;29.60;40.80;;;;;;6098426;23;20014;-66